sensor_id;sensor_type;location;lat;lon;timestamp;P1;durP1;ratioP1;P2;durP2;ratioP2
31836;SDS011;18401;49.344;6.240;2022-07-23T00:02:07;33.55;;;15.50;;
31836;SDS011;18401;49.344;6.240;2022-07-23T00:04:33;26.85;;;14.85;;
31836;SDS011;18401;49.344;6.240;2022-07-23T00:06:58;20.60;;;13.20;;
31836;SDS011;18401;49.344;6.240;2022-07-23T00:09:24;18.35;;;12.13;;
31836;SDS011;18401;49.344;6.240;2022-07-23T00:11:50;20.70;;;12.43;;
31836;SDS011;18401;49.344;6.240;2022-07-23T00:14:15;18.00;;;12.23;;
31836;SDS011;18401;49.344;6.240;2022-07-23T00:16:41;21.42;;;13.05;;
31836;SDS011;18401;49.344;6.240;2022-07-23T00:19:07;20.33;;;12.15;;
31836;SDS011;18401;49.344;6.240;2022-07-23T00:21:32;16.75;;;12.57;;
31836;SDS011;18401;49.344;6.240;2022-07-23T00:23:58;18.45;;;13.35;;
31836;SDS011;18401;49.344;6.240;2022-07-23T00:26:24;20.00;;;12.35;;
31836;SDS011;18401;49.344;6.240;2022-07-23T00:28:49;22.55;;;14.02;;
31836;SDS011;18401;49.344;6.240;2022-07-23T00:31:15;18.52;;;12.38;;
31836;SDS011;18401;49.344;6.240;2022-07-23T00:33:41;16.98;;;12.02;;
31836;SDS011;18401;49.344;6.240;2022-07-23T00:36:06;15.07;;;10.80;;
31836;SDS011;18401;49.344;6.240;2022-07-23T00:38:32;14.60;;;10.32;;
31836;SDS011;18401;49.344;6.240;2022-07-23T00:40:58;15.02;;;10.60;;
31836;SDS011;18401;49.344;6.240;2022-07-23T00:43:24;18.98;;;12.52;;
31836;SDS011;18401;49.344;6.240;2022-07-23T00:45:50;16.10;;;11.02;;
31836;SDS011;18401;49.344;6.240;2022-07-23T00:48:15;16.20;;;10.70;;
31836;SDS011;18401;49.344;6.240;2022-07-23T00:50:42;17.05;;;10.85;;
31836;SDS011;18401;49.344;6.240;2022-07-23T00:53:08;18.17;;;11.43;;
31836;SDS011;18401;49.344;6.240;2022-07-23T00:55:35;20.60;;;12.30;;
31836;SDS011;18401;49.344;6.240;2022-07-23T00:58:01;20.80;;;12.85;;
31836;SDS011;18401;49.344;6.240;2022-07-23T01:00:27;18.40;;;12.95;;
31836;SDS011;18401;49.344;6.240;2022-07-23T01:02:53;14.73;;;11.77;;
31836;SDS011;18401;49.344;6.240;2022-07-23T01:05:19;24.48;;;14.13;;
31836;SDS011;18401;49.344;6.240;2022-07-23T01:07:47;18.02;;;12.05;;
31836;SDS011;18401;49.344;6.240;2022-07-23T01:10:14;22.73;;;14.40;;
31836;SDS011;18401;49.344;6.240;2022-07-23T01:12:59;23.08;;;14.65;;
31836;SDS011;18401;49.344;6.240;2022-07-23T01:15:26;22.98;;;14.57;;
31836;SDS011;18401;49.344;6.240;2022-07-23T01:17:52;24.10;;;14.75;;
31836;SDS011;18401;49.344;6.240;2022-07-23T01:20:18;22.40;;;14.32;;
31836;SDS011;18401;49.344;6.240;2022-07-23T01:22:44;23.33;;;14.07;;
31836;SDS011;18401;49.344;6.240;2022-07-23T01:25:10;21.77;;;13.95;;
31836;SDS011;18401;49.344;6.240;2022-07-23T01:27:35;18.35;;;13.27;;
31836;SDS011;18401;49.344;6.240;2022-07-23T01:30:02;26.38;;;14.65;;
31836;SDS011;18401;49.344;6.240;2022-07-23T01:32:28;22.63;;;14.45;;
31836;SDS011;18401;49.344;6.240;2022-07-23T01:34:54;22.92;;;15.52;;
31836;SDS011;18401;49.344;6.240;2022-07-23T01:37:20;22.42;;;14.45;;
31836;SDS011;18401;49.344;6.240;2022-07-23T01:39:45;21.52;;;13.00;;
31836;SDS011;18401;49.344;6.240;2022-07-23T01:42:11;21.25;;;13.95;;
31836;SDS011;18401;49.344;6.240;2022-07-23T01:44:36;27.63;;;14.10;;
31836;SDS011;18401;49.344;6.240;2022-07-23T01:47:02;23.55;;;14.15;;
31836;SDS011;18401;49.344;6.240;2022-07-23T01:49:28;26.02;;;15.65;;
31836;SDS011;18401;49.344;6.240;2022-07-23T01:51:54;27.58;;;16.92;;
31836;SDS011;18401;49.344;6.240;2022-07-23T01:54:29;26.60;;;15.73;;
31836;SDS011;18401;49.344;6.240;2022-07-23T01:56:56;22.48;;;15.43;;
31836;SDS011;18401;49.344;6.240;2022-07-23T01:59:22;22.67;;;15.10;;
31836;SDS011;18401;49.344;6.240;2022-07-23T02:01:49;22.73;;;14.88;;
31836;SDS011;18401;49.344;6.240;2022-07-23T02:04:18;23.20;;;15.07;;
31836;SDS011;18401;49.344;6.240;2022-07-23T02:06:48;23.65;;;16.35;;
31836;SDS011;18401;49.344;6.240;2022-07-23T02:09:14;21.15;;;15.45;;
31836;SDS011;18401;49.344;6.240;2022-07-23T02:11:40;23.52;;;15.43;;
31836;SDS011;18401;49.344;6.240;2022-07-23T02:14:05;20.65;;;15.18;;
31836;SDS011;18401;49.344;6.240;2022-07-23T02:16:31;25.58;;;15.73;;
31836;SDS011;18401;49.344;6.240;2022-07-23T02:18:57;26.27;;;15.73;;
31836;SDS011;18401;49.344;6.240;2022-07-23T02:21:23;23.73;;;13.90;;
31836;SDS011;18401;49.344;6.240;2022-07-23T02:23:48;26.65;;;16.48;;
31836;SDS011;18401;49.344;6.240;2022-07-23T02:26:14;26.67;;;16.40;;
31836;SDS011;18401;49.344;6.240;2022-07-23T02:28:40;21.92;;;14.52;;
31836;SDS011;18401;49.344;6.240;2022-07-23T02:31:05;25.95;;;16.63;;
31836;SDS011;18401;49.344;6.240;2022-07-23T02:33:32;27.25;;;16.20;;
31836;SDS011;18401;49.344;6.240;2022-07-23T02:35:58;23.25;;;14.68;;
31836;SDS011;18401;49.344;6.240;2022-07-23T02:38:23;27.42;;;14.80;;
31836;SDS011;18401;49.344;6.240;2022-07-23T02:40:49;22.65;;;15.00;;
31836;SDS011;18401;49.344;6.240;2022-07-23T02:43:15;22.15;;;14.07;;
31836;SDS011;18401;49.344;6.240;2022-07-23T02:45:40;20.65;;;12.95;;
31836;SDS011;18401;49.344;6.240;2022-07-23T02:48:06;20.20;;;13.43;;
31836;SDS011;18401;49.344;6.240;2022-07-23T02:50:32;21.17;;;13.98;;
31836;SDS011;18401;49.344;6.240;2022-07-23T02:52:57;22.40;;;14.02;;
31836;SDS011;18401;49.344;6.240;2022-07-23T02:55:23;18.88;;;13.52;;
31836;SDS011;18401;49.344;6.240;2022-07-23T02:57:49;24.88;;;13.45;;
31836;SDS011;18401;49.344;6.240;2022-07-23T03:00:15;26.50;;;15.90;;
31836;SDS011;18401;49.344;6.240;2022-07-23T03:02:41;21.45;;;13.25;;
31836;SDS011;18401;49.344;6.240;2022-07-23T03:05:06;28.48;;;16.50;;
31836;SDS011;18401;49.344;6.240;2022-07-23T03:07:33;27.65;;;15.80;;
31836;SDS011;18401;49.344;6.240;2022-07-23T03:09:58;24.85;;;14.38;;
31836;SDS011;18401;49.344;6.240;2022-07-23T03:12:24;19.27;;;12.93;;
31836;SDS011;18401;49.344;6.240;2022-07-23T03:14:50;20.20;;;12.80;;
31836;SDS011;18401;49.344;6.240;2022-07-23T03:17:16;24.33;;;14.52;;
31836;SDS011;18401;49.344;6.240;2022-07-23T03:19:42;26.27;;;14.98;;
31836;SDS011;18401;49.344;6.240;2022-07-23T03:22:07;24.52;;;14.93;;
31836;SDS011;18401;49.344;6.240;2022-07-23T03:24:33;25.80;;;14.85;;
31836;SDS011;18401;49.344;6.240;2022-07-23T03:27:18;28.10;;;15.57;;
31836;SDS011;18401;49.344;6.240;2022-07-23T03:29:43;27.50;;;16.85;;
31836;SDS011;18401;49.344;6.240;2022-07-23T03:32:09;28.80;;;16.67;;
31836;SDS011;18401;49.344;6.240;2022-07-23T03:34:35;30.80;;;17.05;;
31836;SDS011;18401;49.344;6.240;2022-07-23T03:37:00;29.42;;;15.85;;
31836;SDS011;18401;49.344;6.240;2022-07-23T03:39:26;26.67;;;15.75;;
31836;SDS011;18401;49.344;6.240;2022-07-23T03:41:52;28.48;;;16.17;;
31836;SDS011;18401;49.344;6.240;2022-07-23T03:44:17;25.60;;;15.57;;
31836;SDS011;18401;49.344;6.240;2022-07-23T03:46:43;27.23;;;15.88;;
31836;SDS011;18401;49.344;6.240;2022-07-23T03:49:09;26.73;;;15.20;;
31836;SDS011;18401;49.344;6.240;2022-07-23T03:51:34;26.55;;;14.98;;
31836;SDS011;18401;49.344;6.240;2022-07-23T03:54:00;25.80;;;13.88;;
31836;SDS011;18401;49.344;6.240;2022-07-23T03:56:26;21.75;;;14.25;;
31836;SDS011;18401;49.344;6.240;2022-07-23T03:58:52;21.77;;;13.63;;
31836;SDS011;18401;49.344;6.240;2022-07-23T04:01:17;29.20;;;15.85;;
31836;SDS011;18401;49.344;6.240;2022-07-23T04:03:43;32.25;;;17.02;;
31836;SDS011;18401;49.344;6.240;2022-07-23T04:06:09;37.92;;;14.10;;
31836;SDS011;18401;49.344;6.240;2022-07-23T04:08:34;80.07;;;10.90;;
31836;SDS011;18401;49.344;6.240;2022-07-23T04:11:00;45.50;;;12.18;;
31836;SDS011;18401;49.344;6.240;2022-07-23T04:13:25;39.95;;;18.73;;
31836;SDS011;18401;49.344;6.240;2022-07-23T04:15:51;43.00;;;18.63;;
31836;SDS011;18401;49.344;6.240;2022-07-23T04:18:17;44.30;;;19.33;;
31836;SDS011;18401;49.344;6.240;2022-07-23T04:20:43;44.63;;;18.90;;
31836;SDS011;18401;49.344;6.240;2022-07-23T04:23:09;34.70;;;18.38;;
31836;SDS011;18401;49.344;6.240;2022-07-23T04:25:35;30.98;;;16.75;;
31836;SDS011;18401;49.344;6.240;2022-07-23T04:28:01;31.08;;;16.60;;
31836;SDS011;18401;49.344;6.240;2022-07-23T04:30:27;25.40;;;15.32;;
31836;SDS011;18401;49.344;6.240;2022-07-23T04:32:52;27.88;;;16.35;;
31836;SDS011;18401;49.344;6.240;2022-07-23T04:35:18;26.60;;;15.13;;
31836;SDS011;18401;49.344;6.240;2022-07-23T04:37:44;27.98;;;14.73;;
31836;SDS011;18401;49.344;6.240;2022-07-23T04:40:10;30.60;;;18.08;;
31836;SDS011;18401;49.344;6.240;2022-07-23T04:42:37;39.17;;;16.95;;
31836;SDS011;18401;49.344;6.240;2022-07-23T04:45:03;30.13;;;17.25;;
31836;SDS011;18401;49.344;6.240;2022-07-23T04:47:29;25.50;;;16.05;;
31836;SDS011;18401;49.344;6.240;2022-07-23T04:49:55;31.13;;;15.35;;
31836;SDS011;18401;49.344;6.240;2022-07-23T04:52:21;24.55;;;14.52;;
31836;SDS011;18401;49.344;6.240;2022-07-23T04:54:48;25.40;;;14.80;;
31836;SDS011;18401;49.344;6.240;2022-07-23T04:57:13;27.35;;;15.10;;
31836;SDS011;18401;49.344;6.240;2022-07-23T04:59:39;24.67;;;15.30;;
31836;SDS011;18401;49.344;6.240;2022-07-23T05:02:05;24.02;;;15.07;;
31836;SDS011;18401;49.344;6.240;2022-07-23T05:04:30;24.15;;;14.60;;
31836;SDS011;18401;49.344;6.240;2022-07-23T05:06:56;24.00;;;14.95;;
31836;SDS011;18401;49.344;6.240;2022-07-23T05:09:22;25.20;;;15.38;;
31836;SDS011;18401;49.344;6.240;2022-07-23T05:11:48;28.52;;;15.68;;
31836;SDS011;18401;49.344;6.240;2022-07-23T05:14:14;27.65;;;16.00;;
31836;SDS011;18401;49.344;6.240;2022-07-23T05:16:39;30.05;;;16.95;;
31836;SDS011;18401;49.344;6.240;2022-07-23T05:19:05;29.15;;;16.45;;
31836;SDS011;18401;49.344;6.240;2022-07-23T05:21:31;30.63;;;16.33;;
31836;SDS011;18401;49.344;6.240;2022-07-23T05:23:57;28.45;;;17.40;;
31836;SDS011;18401;49.344;6.240;2022-07-23T05:26:23;32.80;;;18.05;;
31836;SDS011;18401;49.344;6.240;2022-07-23T05:28:49;35.97;;;19.23;;
31836;SDS011;18401;49.344;6.240;2022-07-23T05:31:15;31.02;;;18.90;;
31836;SDS011;18401;49.344;6.240;2022-07-23T05:33:41;38.55;;;19.55;;
31836;SDS011;18401;49.344;6.240;2022-07-23T05:36:06;31.30;;;18.67;;
31836;SDS011;18401;49.344;6.240;2022-07-23T05:38:32;32.25;;;17.88;;
31836;SDS011;18401;49.344;6.240;2022-07-23T05:40:58;33.30;;;17.75;;
31836;SDS011;18401;49.344;6.240;2022-07-23T05:43:24;30.45;;;16.27;;
31836;SDS011;18401;49.344;6.240;2022-07-23T05:45:50;29.95;;;16.35;;
31836;SDS011;18401;49.344;6.240;2022-07-23T05:48:16;28.10;;;16.38;;
31836;SDS011;18401;49.344;6.240;2022-07-23T05:50:42;31.83;;;17.52;;
31836;SDS011;18401;49.344;6.240;2022-07-23T05:53:07;29.80;;;16.30;;
31836;SDS011;18401;49.344;6.240;2022-07-23T05:55:33;26.70;;;15.63;;
31836;SDS011;18401;49.344;6.240;2022-07-23T05:57:59;27.40;;;15.30;;
31836;SDS011;18401;49.344;6.240;2022-07-23T06:00:25;31.65;;;16.58;;
31836;SDS011;18401;49.344;6.240;2022-07-23T06:02:51;30.08;;;15.93;;
31836;SDS011;18401;49.344;6.240;2022-07-23T06:05:17;28.65;;;16.52;;
31836;SDS011;18401;49.344;6.240;2022-07-23T06:07:43;24.85;;;15.95;;
31836;SDS011;18401;49.344;6.240;2022-07-23T06:10:08;26.10;;;14.90;;
31836;SDS011;18401;49.344;6.240;2022-07-23T06:12:35;29.13;;;15.48;;
31836;SDS011;18401;49.344;6.240;2022-07-23T06:15:01;26.58;;;16.10;;
31836;SDS011;18401;49.344;6.240;2022-07-23T06:17:28;25.30;;;14.55;;
31836;SDS011;18401;49.344;6.240;2022-07-23T06:19:54;28.10;;;14.88;;
31836;SDS011;18401;49.344;6.240;2022-07-23T06:22:19;29.35;;;14.43;;
31836;SDS011;18401;49.344;6.240;2022-07-23T06:24:45;24.95;;;14.02;;
31836;SDS011;18401;49.344;6.240;2022-07-23T06:27:11;26.92;;;13.75;;
31836;SDS011;18401;49.344;6.240;2022-07-23T06:29:36;21.48;;;12.93;;
31836;SDS011;18401;49.344;6.240;2022-07-23T06:32:02;22.05;;;12.90;;
31836;SDS011;18401;49.344;6.240;2022-07-23T06:34:28;22.17;;;13.82;;
31836;SDS011;18401;49.344;6.240;2022-07-23T06:36:54;21.92;;;13.45;;
31836;SDS011;18401;49.344;6.240;2022-07-23T06:39:19;20.98;;;12.50;;
31836;SDS011;18401;49.344;6.240;2022-07-23T06:41:45;25.52;;;13.23;;
31836;SDS011;18401;49.344;6.240;2022-07-23T06:44:11;23.65;;;12.73;;
31836;SDS011;18401;49.344;6.240;2022-07-23T06:46:36;23.30;;;13.65;;
31836;SDS011;18401;49.344;6.240;2022-07-23T06:49:02;20.73;;;12.65;;
31836;SDS011;18401;49.344;6.240;2022-07-23T06:51:29;20.80;;;12.50;;
31836;SDS011;18401;49.344;6.240;2022-07-23T06:53:55;21.27;;;11.98;;
31836;SDS011;18401;49.344;6.240;2022-07-23T06:56:20;24.80;;;12.88;;
31836;SDS011;18401;49.344;6.240;2022-07-23T06:58:46;25.80;;;12.38;;
31836;SDS011;18401;49.344;6.240;2022-07-23T07:01:12;21.88;;;12.18;;
31836;SDS011;18401;49.344;6.240;2022-07-23T07:03:38;19.35;;;11.07;;
31836;SDS011;18401;49.344;6.240;2022-07-23T07:06:03;20.45;;;11.90;;
31836;SDS011;18401;49.344;6.240;2022-07-23T07:08:29;30.67;;;13.10;;
31836;SDS011;18401;49.344;6.240;2022-07-23T07:10:55;21.75;;;13.93;;
31836;SDS011;18401;49.344;6.240;2022-07-23T07:13:21;20.55;;;12.10;;
31836;SDS011;18401;49.344;6.240;2022-07-23T07:15:46;26.38;;;12.93;;
31836;SDS011;18401;49.344;6.240;2022-07-23T07:18:12;21.05;;;11.77;;
31836;SDS011;18401;49.344;6.240;2022-07-23T07:20:38;23.60;;;12.57;;
31836;SDS011;18401;49.344;6.240;2022-07-23T07:43:04;22.58;;;11.13;;
31836;SDS011;18401;49.344;6.240;2022-07-23T07:45:31;17.55;;;11.38;;
31836;SDS011;18401;49.344;6.240;2022-07-23T07:47:57;20.58;;;11.65;;
31836;SDS011;18401;49.344;6.240;2022-07-23T07:50:23;24.52;;;10.40;;
31836;SDS011;18401;49.344;6.240;2022-07-23T07:52:49;16.85;;;9.95;;
31836;SDS011;18401;49.344;6.240;2022-07-23T07:55:14;23.70;;;11.18;;
31836;SDS011;18401;49.344;6.240;2022-07-23T07:57:40;19.30;;;10.35;;
31836;SDS011;18401;49.344;6.240;2022-07-23T08:00:07;19.70;;;10.45;;
31836;SDS011;18401;49.344;6.240;2022-07-23T08:02:44;17.65;;;10.55;;
31836;SDS011;18401;49.344;6.240;2022-07-23T08:05:12;17.23;;;10.07;;
31836;SDS011;18401;49.344;6.240;2022-07-23T08:07:38;15.60;;;9.80;;
31836;SDS011;18401;49.344;6.240;2022-07-23T08:10:05;17.25;;;9.70;;
31836;SDS011;18401;49.344;6.240;2022-07-23T08:12:41;20.83;;;10.85;;
31836;SDS011;18401;49.344;6.240;2022-07-23T08:15:16;14.27;;;9.05;;
31836;SDS011;18401;49.344;6.240;2022-07-23T08:17:44;15.00;;;9.38;;
31836;SDS011;18401;49.344;6.240;2022-07-23T08:20:11;16.92;;;9.65;;
31836;SDS011;18401;49.344;6.240;2022-07-23T08:23:20;16.00;;;9.82;;
31836;SDS011;18401;49.344;6.240;2022-07-23T08:25:34;20.30;;;11.00;;
31836;SDS011;18401;49.344;6.240;2022-07-23T08:28:05;16.77;;;9.57;;
31836;SDS011;18401;49.344;6.240;2022-07-23T08:30:33;23.42;;;9.98;;
31836;SDS011;18401;49.344;6.240;2022-07-23T08:33:08;17.80;;;9.85;;
31836;SDS011;18401;49.344;6.240;2022-07-23T08:35:42;16.08;;;9.52;;
31836;SDS011;18401;49.344;6.240;2022-07-23T08:38:11;19.42;;;11.30;;
31836;SDS011;18401;49.344;6.240;2022-07-23T08:40:40;17.85;;;11.30;;
31836;SDS011;18401;49.344;6.240;2022-07-23T08:43:09;28.05;;;10.43;;
31836;SDS011;18401;49.344;6.240;2022-07-23T08:45:41;19.25;;;10.05;;
31836;SDS011;18401;49.344;6.240;2022-07-23T08:48:10;16.80;;;9.43;;
31836;SDS011;18401;49.344;6.240;2022-07-23T08:50:37;16.88;;;9.68;;
31836;SDS011;18401;49.344;6.240;2022-07-23T08:53:11;19.60;;;10.43;;
31836;SDS011;18401;49.344;6.240;2022-07-23T08:55:38;16.88;;;10.63;;
31836;SDS011;18401;49.344;6.240;2022-07-23T08:58:05;22.50;;;9.65;;
31836;SDS011;18401;49.344;6.240;2022-07-23T09:00:31;18.40;;;9.63;;
31836;SDS011;18401;49.344;6.240;2022-07-23T09:02:57;19.60;;;10.38;;
31836;SDS011;18401;49.344;6.240;2022-07-23T09:05:23;15.40;;;9.23;;
31836;SDS011;18401;49.344;6.240;2022-07-23T09:16:11;17.35;;;10.80;;
31836;SDS011;18401;49.344;6.240;2022-07-23T09:24:17;17.23;;;8.85;;
31836;SDS011;18401;49.344;6.240;2022-07-23T09:26:45;20.25;;;8.55;;
31836;SDS011;18401;49.344;6.240;2022-07-23T09:29:16;15.65;;;9.18;;
31836;SDS011;18401;49.344;6.240;2022-07-23T09:31:55;15.02;;;9.13;;
31836;SDS011;18401;49.344;6.240;2022-07-23T09:36:56;18.92;;;10.02;;
31836;SDS011;18401;49.344;6.240;2022-07-23T09:39:29;16.58;;;8.95;;
31836;SDS011;18401;49.344;6.240;2022-07-23T09:41:57;16.77;;;8.63;;
31836;SDS011;18401;49.344;6.240;2022-07-23T09:44:40;21.73;;;9.45;;
31836;SDS011;18401;49.344;6.240;2022-07-23T09:47:07;14.45;;;9.15;;
31836;SDS011;18401;49.344;6.240;2022-07-23T09:49:32;15.50;;;8.55;;
31836;SDS011;18401;49.344;6.240;2022-07-23T09:51:59;19.30;;;8.95;;
31836;SDS011;18401;49.344;6.240;2022-07-23T09:54:28;14.48;;;9.15;;
31836;SDS011;18401;49.344;6.240;2022-07-23T09:57:00;19.35;;;7.82;;
31836;SDS011;18401;49.344;6.240;2022-07-23T09:59:34;19.63;;;8.90;;
31836;SDS011;18401;49.344;6.240;2022-07-23T10:02:02;15.30;;;8.77;;
31836;SDS011;18401;49.344;6.240;2022-07-23T10:04:29;17.15;;;8.70;;
31836;SDS011;18401;49.344;6.240;2022-07-23T10:06:56;13.52;;;8.02;;
31836;SDS011;18401;49.344;6.240;2022-07-23T10:09:31;14.80;;;7.95;;
31836;SDS011;18401;49.344;6.240;2022-07-23T10:12:10;14.80;;;8.65;;
31836;SDS011;18401;49.344;6.240;2022-07-23T10:14:56;14.30;;;7.85;;
31836;SDS011;18401;49.344;6.240;2022-07-23T10:17:23;16.05;;;8.30;;
31836;SDS011;18401;49.344;6.240;2022-07-23T10:19:48;9.93;;;7.05;;
31836;SDS011;18401;49.344;6.240;2022-07-23T10:22:18;10.80;;;6.75;;
31836;SDS011;18401;49.344;6.240;2022-07-23T10:27:52;14.95;;;7.90;;
31836;SDS011;18401;49.344;6.240;2022-07-23T10:33:46;11.35;;;7.10;;
31836;SDS011;18401;49.344;6.240;2022-07-23T10:42:11;10.90;;;7.22;;
31836;SDS011;18401;49.344;6.240;2022-07-23T10:44:42;13.47;;;6.53;;
31836;SDS011;18401;49.344;6.240;2022-07-23T10:47:12;13.05;;;7.15;;
31836;SDS011;18401;49.344;6.240;2022-07-23T10:49:50;11.68;;;7.00;;
31836;SDS011;18401;49.344;6.240;2022-07-23T10:52:17;14.77;;;8.95;;
31836;SDS011;18401;49.344;6.240;2022-07-23T10:54:48;9.15;;;6.45;;
31836;SDS011;18401;49.344;6.240;2022-07-23T10:57:25;13.68;;;6.88;;
31836;SDS011;18401;49.344;6.240;2022-07-23T11:02:40;14.20;;;8.95;;
31836;SDS011;18401;49.344;6.240;2022-07-23T11:05:08;12.70;;;7.43;;
31836;SDS011;18401;49.344;6.240;2022-07-23T11:07:38;12.45;;;7.57;;
31836;SDS011;18401;49.344;6.240;2022-07-23T11:10:43;14.00;;;7.38;;
31836;SDS011;18401;49.344;6.240;2022-07-23T11:13:30;10.00;;;6.57;;
31836;SDS011;18401;49.344;6.240;2022-07-23T11:24:00;15.07;;;6.57;;
31836;SDS011;18401;49.344;6.240;2022-07-23T11:29:37;11.88;;;6.65;;
31836;SDS011;18401;49.344;6.240;2022-07-23T11:32:01;12.25;;;6.72;;
31836;SDS011;18401;49.344;6.240;2022-07-23T11:37:03;12.57;;;6.65;;
31836;SDS011;18401;49.344;6.240;2022-07-23T11:39:31;11.32;;;7.13;;
31836;SDS011;18401;49.344;6.240;2022-07-23T11:42:00;9.18;;;6.35;;
31836;SDS011;18401;49.344;6.240;2022-07-23T11:44:30;9.88;;;6.57;;
31836;SDS011;18401;49.344;6.240;2022-07-23T11:47:02;13.75;;;6.50;;
31836;SDS011;18401;49.344;6.240;2022-07-23T11:49:32;12.30;;;6.13;;
31836;SDS011;18401;49.344;6.240;2022-07-23T11:52:05;12.82;;;6.72;;
31836;SDS011;18401;49.344;6.240;2022-07-23T11:54:32;13.30;;;6.95;;
31836;SDS011;18401;49.344;6.240;2022-07-23T11:56:59;10.65;;;6.15;;
31836;SDS011;18401;49.344;6.240;2022-07-23T11:59:26;13.38;;;6.63;;
31836;SDS011;18401;49.344;6.240;2022-07-23T12:04:28;11.30;;;6.57;;
31836;SDS011;18401;49.344;6.240;2022-07-23T12:07:30;11.35;;;7.05;;
31836;SDS011;18401;49.344;6.240;2022-07-23T12:09:57;10.45;;;5.95;;
31836;SDS011;18401;49.344;6.240;2022-07-23T12:12:24;8.02;;;5.40;;
31836;SDS011;18401;49.344;6.240;2022-07-23T12:14:55;9.07;;;5.97;;
31836;SDS011;18401;49.344;6.240;2022-07-23T12:17:29;6.78;;;5.72;;
31836;SDS011;18401;49.344;6.240;2022-07-23T12:19:57;7.43;;;5.35;;
31836;SDS011;18401;49.344;6.240;2022-07-23T12:22:24;7.55;;;4.93;;
31836;SDS011;18401;49.344;6.240;2022-07-23T12:24:54;7.32;;;5.28;;
31836;SDS011;18401;49.344;6.240;2022-07-23T12:27:25;9.77;;;5.90;;
31836;SDS011;18401;49.344;6.240;2022-07-23T12:29:52;8.38;;;5.43;;
31836;SDS011;18401;49.344;6.240;2022-07-23T12:34:48;6.40;;;4.63;;
31836;SDS011;18401;49.344;6.240;2022-07-23T12:37:28;8.00;;;5.20;;
31836;SDS011;18401;49.344;6.240;2022-07-23T12:39:56;10.90;;;5.80;;
31836;SDS011;18401;49.344;6.240;2022-07-23T12:42:22;10.23;;;5.53;;
31836;SDS011;18401;49.344;6.240;2022-07-23T12:45:10;11.50;;;6.20;;
31836;SDS011;18401;49.344;6.240;2022-07-23T12:47:56;11.25;;;5.97;;
31836;SDS011;18401;49.344;6.240;2022-07-23T12:50:37;8.82;;;6.07;;
31836;SDS011;18401;49.344;6.240;2022-07-23T12:55:37;10.90;;;6.28;;
31836;SDS011;18401;49.344;6.240;2022-07-23T12:58:07;12.98;;;6.03;;
31836;SDS011;18401;49.344;6.240;2022-07-23T13:00:54;8.73;;;6.05;;
31836;SDS011;18401;49.344;6.240;2022-07-23T13:03:31;10.98;;;6.22;;
31836;SDS011;18401;49.344;6.240;2022-07-23T13:06:00;9.25;;;6.00;;
31836;SDS011;18401;49.344;6.240;2022-07-23T13:08:27;9.57;;;5.43;;
31836;SDS011;18401;49.344;6.240;2022-07-23T13:10:55;9.82;;;5.70;;
31836;SDS011;18401;49.344;6.240;2022-07-23T13:13:26;7.38;;;5.10;;
31836;SDS011;18401;49.344;6.240;2022-07-23T13:15:53;8.15;;;5.57;;
31836;SDS011;18401;49.344;6.240;2022-07-23T13:18:19;7.80;;;5.22;;
31836;SDS011;18401;49.344;6.240;2022-07-23T13:20:46;9.32;;;5.32;;
31836;SDS011;18401;49.344;6.240;2022-07-23T13:23:13;8.13;;;5.40;;
31836;SDS011;18401;49.344;6.240;2022-07-23T13:25:39;6.70;;;4.63;;
31836;SDS011;18401;49.344;6.240;2022-07-23T13:28:05;9.30;;;4.20;;
31836;SDS011;18401;49.344;6.240;2022-07-23T13:30:31;5.00;;;3.92;;
31836;SDS011;18401;49.344;6.240;2022-07-23T13:32:58;8.50;;;5.22;;
31836;SDS011;18401;49.344;6.240;2022-07-23T13:35:24;7.90;;;4.63;;
31836;SDS011;18401;49.344;6.240;2022-07-23T13:37:50;7.20;;;4.93;;
31836;SDS011;18401;49.344;6.240;2022-07-23T13:40:15;9.40;;;4.53;;
31836;SDS011;18401;49.344;6.240;2022-07-23T13:42:41;7.43;;;4.90;;
31836;SDS011;18401;49.344;6.240;2022-07-23T13:45:07;9.30;;;4.28;;
31836;SDS011;18401;49.344;6.240;2022-07-23T13:47:33;7.38;;;4.85;;
31836;SDS011;18401;49.344;6.240;2022-07-23T13:49:59;8.63;;;5.18;;
31836;SDS011;18401;49.344;6.240;2022-07-23T13:52:24;6.05;;;4.75;;
31836;SDS011;18401;49.344;6.240;2022-07-23T13:54:50;8.73;;;5.13;;
31836;SDS011;18401;49.344;6.240;2022-07-23T13:57:16;10.07;;;5.63;;
31836;SDS011;18401;49.344;6.240;2022-07-23T13:59:42;8.50;;;5.65;;
31836;SDS011;18401;49.344;6.240;2022-07-23T14:02:07;10.55;;;5.50;;
31836;SDS011;18401;49.344;6.240;2022-07-23T14:04:33;7.75;;;5.63;;
31836;SDS011;18401;49.344;6.240;2022-07-23T14:07:00;8.15;;;5.72;;
31836;SDS011;18401;49.344;6.240;2022-07-23T14:09:26;6.78;;;5.38;;
31836;SDS011;18401;49.344;6.240;2022-07-23T14:11:52;9.60;;;5.60;;
31836;SDS011;18401;49.344;6.240;2022-07-23T14:14:18;7.80;;;5.80;;
31836;SDS011;18401;49.344;6.240;2022-07-23T14:16:44;7.60;;;4.60;;
31836;SDS011;18401;49.344;6.240;2022-07-23T14:19:10;6.85;;;4.70;;
31836;SDS011;18401;49.344;6.240;2022-07-23T14:21:36;8.23;;;5.10;;
31836;SDS011;18401;49.344;6.240;2022-07-23T14:24:02;6.07;;;4.80;;
31836;SDS011;18401;49.344;6.240;2022-07-23T14:26:28;6.30;;;4.90;;
31836;SDS011;18401;49.344;6.240;2022-07-23T14:28:54;8.75;;;5.50;;
31836;SDS011;18401;49.344;6.240;2022-07-23T14:31:20;12.68;;;5.25;;
31836;SDS011;18401;49.344;6.240;2022-07-23T14:33:46;8.10;;;5.18;;
31836;SDS011;18401;49.344;6.240;2022-07-23T14:36:13;6.47;;;4.88;;
31836;SDS011;18401;49.344;6.240;2022-07-23T14:38:38;5.25;;;4.55;;
31836;SDS011;18401;49.344;6.240;2022-07-23T14:41:04;6.80;;;4.68;;
31836;SDS011;18401;49.344;6.240;2022-07-23T14:43:34;8.35;;;4.90;;
31836;SDS011;18401;49.344;6.240;2022-07-23T14:46:00;6.53;;;4.85;;
31836;SDS011;18401;49.344;6.240;2022-07-23T14:48:26;9.00;;;4.50;;
31836;SDS011;18401;49.344;6.240;2022-07-23T14:50:51;9.75;;;4.47;;
31836;SDS011;18401;49.344;6.240;2022-07-23T14:53:17;9.25;;;4.55;;
31836;SDS011;18401;49.344;6.240;2022-07-23T14:55:43;12.93;;;5.70;;
31836;SDS011;18401;49.344;6.240;2022-07-23T14:58:09;5.57;;;4.13;;
31836;SDS011;18401;49.344;6.240;2022-07-23T15:00:34;11.30;;;4.55;;
31836;SDS011;18401;49.344;6.240;2022-07-23T15:03:00;6.60;;;4.38;;
31836;SDS011;18401;49.344;6.240;2022-07-23T15:05:26;12.80;;;4.63;;
31836;SDS011;18401;49.344;6.240;2022-07-23T15:07:53;9.60;;;4.40;;
31836;SDS011;18401;49.344;6.240;2022-07-23T15:10:19;8.27;;;4.00;;
31836;SDS011;18401;49.344;6.240;2022-07-23T15:12:45;7.38;;;4.30;;
31836;SDS011;18401;49.344;6.240;2022-07-23T15:15:11;5.60;;;4.40;;
31836;SDS011;18401;49.344;6.240;2022-07-23T15:17:37;7.22;;;4.35;;
31836;SDS011;18401;49.344;6.240;2022-07-23T15:20:04;5.47;;;4.43;;
31836;SDS011;18401;49.344;6.240;2022-07-23T15:22:30;7.15;;;4.28;;
31836;SDS011;18401;49.344;6.240;2022-07-23T15:24:56;4.95;;;4.00;;
31836;SDS011;18401;49.344;6.240;2022-07-23T15:27:21;10.93;;;4.28;;
31836;SDS011;18401;49.344;6.240;2022-07-23T15:29:47;5.55;;;4.07;;
31836;SDS011;18401;49.344;6.240;2022-07-23T15:32:13;5.10;;;3.72;;
31836;SDS011;18401;49.344;6.240;2022-07-23T15:34:39;8.90;;;4.70;;
31836;SDS011;18401;49.344;6.240;2022-07-23T15:37:05;6.55;;;3.88;;
31836;SDS011;18401;49.344;6.240;2022-07-23T15:39:31;8.75;;;4.25;;
31836;SDS011;18401;49.344;6.240;2022-07-23T15:42:00;10.88;;;4.50;;
31836;SDS011;18401;49.344;6.240;2022-07-23T15:44:26;6.65;;;4.10;;
31836;SDS011;18401;49.344;6.240;2022-07-23T15:46:52;7.40;;;4.00;;